Arivaca, Arizona
Current Conditions -  °F | °C
As of 7:54 PM on Monday 20 Oct 2014 (Local Time) from KOLS Reporting Station
Broken Clouds Broken Clouds  
Wind Chill: 62°   Ceiling: 9000
Heat Index: 62°   Visibility: 10mi
Dew Point: 47°   Wind: 7mph
Humidity: 58%   Direction: 100°E
Pressure: 29.99"   Gusts: NA
Location:  31.57°N, 111.33°W
Report Text: KOLS 210254Z AUTO 10006KT 10SM BKN090 17/08 A2999 RMK AO2 SLP111 T01670083 53015
Loading
Personal Weather Stations






























Interactive Weather Map
Tropical Storm Tracking
New forecast layout! Learn more

10-Day Weather Forecast

Advertisements
Track Severe Weather on mobile